Time;durP1;ratioP1;P1;durP2;ratioP2;P2;SDS_P1;SDS_P2;PMS_P1;PMS_P2;Temp;Humidity;BMP_temperature;BMP_pressure;BME280_temperature;BME280_humidity;BME280_pressure;Samples;Min_cycle;Max_cycle;Signal;HPM_P1;HPM_P2
2023/08/15 00:01:36;;;;;;;11.80;5.28;;;;;;;21.85;96.75;100824.78;4981330;28;20053;-71
2023/08/15 00:04:02;;;;;;;7.00;4.10;;;;;;;21.77;97.07;100828.66;4984162;28;20046;-71
2023/08/15 00:06:27;;;;;;;7.20;3.95;;;;;;;21.68;98.01;100823.03;4980101;28;20035;-71
2023/08/15 00:08:55;;;;;;;7.03;4.47;;;;;;;21.60;98.51;100815.53;4971511;28;20118;-71
2023/08/15 00:11:22;;;;;;;7.18;4.18;;;;;;;21.54;98.88;100804.47;4966768;28;20452;-71
2023/08/15 00:13:47;;;;;;;5.30;3.67;;;;;;;21.50;99.07;100810.78;4967569;28;20095;-72
2023/08/15 00:16:13;;;;;;;7.32;3.67;;;;;;;21.43;99.49;100797.16;4984627;28;20046;-71
2023/08/15 00:18:38;;;;;;;6.50;4.47;;;;;;;21.38;99.82;100793.03;4976796;28;20503;-71
2023/08/15 00:21:04;;;;;;;8.88;4.78;;;;;;;21.33;99.96;100784.53;4963860;28;20034;-71
2023/08/15 00:23:29;;;;;;;5.07;3.97;;;;;;;21.28;100.00;100787.44;4971069;28;20757;-71
2023/08/15 00:25:54;;;;;;;7.75;4.68;;;;;;;21.22;100.00;100785.94;4987714;28;20345;-71
2023/08/15 00:28:20;;;;;;;5.57;4.15;;;;;;;21.17;100.00;100795.84;4969781;28;20043;-71
2023/08/15 00:30:45;;;;;;;4.97;3.45;;;;;;;21.13;100.00;100801.34;4985221;28;21978;-71
2023/08/15 00:33:10;;;;;;;4.78;3.40;;;;;;;21.08;100.00;100798.09;4981240;28;20041;-72
2023/08/15 00:35:36;;;;;;;6.25;3.90;;;;;;;21.04;100.00;100800.06;4985911;28;20034;-71
2023/08/15 00:38:01;;;;;;;4.22;3.83;;;;;;;21.01;100.00;100799.34;4986162;28;20486;-71
2023/08/15 00:40:26;;;;;;;4.22;3.70;;;;;;;21.02;100.00;100798.41;4964490;28;20049;-72
2023/08/15 00:42:52;;;;;;;5.15;4.15;;;;;;;21.00;100.00;100795.88;4979291;28;20039;-71
2023/08/15 00:45:17;;;;;;;6.20;4.35;;;;;;;20.97;100.00;100801.28;4978705;28;20639;-71
2023/08/15 00:47:43;;;;;;;7.97;4.53;;;;;;;20.94;100.00;100804.06;4963194;28;20673;-71
2023/08/15 00:50:09;;;;;;;6.93;5.07;;;;;;;20.93;100.00;100796.28;4984101;28;20037;-71
2023/08/15 00:52:35;;;;;;;7.45;4.70;;;;;;;20.93;100.00;100796.28;4957125;28;20054;-71
2023/08/15 00:55:02;;;;;;;5.45;4.25;;;;;;;20.94;100.00;100790.91;4985025;28;20057;-71
2023/08/15 00:57:29;;;;;;;5.40;4.28;;;;;;;20.95;100.00;100778.63;4967674;28;20038;-71
2023/08/15 00:59:54;;;;;;;9.27;4.38;;;;;;;20.93;100.00;100768.19;4988017;28;20420;-70
2023/08/15 01:02:20;;;;;;;7.15;4.40;;;;;;;20.89;100.00;100763.19;4982650;28;20034;-71
2023/08/15 01:04:45;;;;;;;5.90;3.85;;;;;;;20.86;100.00;100758.94;4960684;28;20038;-71
2023/08/15 01:07:12;;;;;;;7.47;4.05;;;;;;;20.81;100.00;100749.59;4984808;28;20044;-71
2023/08/15 01:09:37;;;;;;;6.55;4.50;;;;;;;20.78;100.00;100749.75;4976769;28;20542;-71
2023/08/15 01:12:28;;;;;;;4.95;4.32;;;;;;;20.75;100.00;100744.66;4982451;28;20049;-72
2023/08/15 01:15:06;;;;;;;8.57;4.65;;;;;;;20.74;100.00;100738.53;4976589;28;20026;-71
2023/08/15 01:17:48;;;;;;;5.95;4.20;;;;;;;20.70;100.00;100736.97;4982457;28;20034;-71
2023/08/15 01:20:20;;;;;;;8.13;4.50;;;;;;;20.67;100.00;100737.09;4978516;28;20471;-71
2023/08/15 01:22:51;;;;;;;5.00;3.90;;;;;;;20.64;100.00;100742.50;4967345;28;20046;-71
2023/08/15 01:25:17;;;;;;;8.88;5.32;;;;;;;20.61;100.00;100740.03;4981372;28;20516;-71
2023/08/15 01:27:42;;;;;;;7.88;3.85;;;;;;;20.58;100.00;100754.16;4983312;28;20034;-71
2023/08/15 01:30:08;;;;;;;8.20;4.15;;;;;;;20.57;100.00;100756.91;4985670;28;20117;-71
2023/08/15 01:32:36;;;;;;;6.45;4.40;;;;;;;20.55;100.00;100756.94;4984601;28;20113;-71
2023/08/15 01:35:19;;;;;;;5.85;3.75;;;;;;;20.55;100.00;100763.97;4986565;28;20620;-71
2023/08/15 01:37:50;;;;;;;6.05;4.35;;;;;;;20.55;100.00;100771.84;4984976;28;20034;-71
2023/08/15 01:40:20;;;;;;;4.28;3.80;;;;;;;20.54;100.00;100772.78;4986291;28;20042;-71
2023/08/15 01:42:47;;;;;;;5.90;3.72;;;;;;;20.56;100.00;100778.81;4977578;28;20566;-71
2023/08/15 01:45:13;;;;;;;4.00;3.42;;;;;;;20.58;100.00;100787.47;4984321;28;20121;-72
2023/08/15 01:47:38;;;;;;;7.47;3.70;;;;;;;20.62;100.00;100784.63;4964035;28;20026;-71
2023/08/15 01:50:05;;;;;;;5.55;4.10;;;;;;;20.69;100.00;100788.66;4981056;28;20046;-72
2023/08/15 01:52:30;;;;;;;7.07;4.35;;;;;;;20.77;100.00;100792.69;4984743;28;20122;-71
2023/08/15 01:54:55;;;;;;;8.40;4.20;;;;;;;20.82;100.00;100788.91;4985752;28;20117;-71
2023/08/15 01:57:21;;;;;;;6.43;4.70;;;;;;;20.87;100.00;100788.69;4987111;28;20128;-71
2023/08/15 01:59:46;;;;;;;5.18;3.70;;;;;;;20.88;100.00;100780.72;4977568;28;20492;-71
2023/08/15 02:02:11;;;;;;;6.28;4.57;;;;;;;20.87;100.00;100776.38;4984507;28;20042;-71
2023/08/15 02:04:37;;;;;;;5.28;3.83;;;;;;;20.89;100.00;100777.19;4986505;28;20096;-71
2023/08/15 02:07:02;;;;;;;4.47;3.13;;;;;;;20.90;100.00;100778.03;4978013;28;20042;-71
2023/08/15 02:09:28;;;;;;;4.45;3.33;;;;;;;20.90;100.00;100781.47;4967347;28;20039;-71
2023/08/15 02:11:53;;;;;;;5.05;3.60;;;;;;;20.95;100.00;100782.13;4966012;28;20034;-71
2023/08/15 02:14:18;;;;;;;4.05;3.40;;;;;;;21.02;100.00;100780.00;4966558;28;20031;-72
2023/08/15 02:16:44;;;;;;;4.93;3.38;;;;;;;21.08;100.00;100779.69;4964158;28;20039;-71
2023/08/15 02:19:09;;;;;;;4.93;3.58;;;;;;;21.14;100.00;100785.50;4968145;28;20081;-71
2023/08/15 02:21:35;;;;;;;3.97;3.13;;;;;;;21.20;100.00;100781.69;4964457;28;20034;-71
2023/08/15 02:24:00;;;;;;;4.38;3.80;;;;;;;21.25;100.00;100782.31;4967164;28;20526;-71
2023/08/15 02:26:26;;;;;;;5.47;3.58;;;;;;;21.28;100.00;100785.63;4962887;28;20027;-71
2023/08/15 02:28:51;;;;;;;5.00;3.60;;;;;;;21.33;100.00;100781.91;4943960;28;20041;-72
2023/08/15 02:31:17;;;;;;;5.10;3.75;;;;;;;21.36;100.00;100779.13;4966872;28;20045;-72
2023/08/15 02:33:42;;;;;;;5.35;3.38;;;;;;;21.37;100.00;100783.47;4954989;28;20045;-72
2023/08/15 02:36:08;;;;;;;5.93;4.03;;;;;;;21.38;100.00;100780.75;4966528;28;20039;-72
2023/08/15 02:38:34;;;;;;;6.65;4.15;;;;;;;21.39;100.00;100786.84;4961562;28;20027;-71
2023/08/15 02:40:59;;;;;;;5.60;3.88;;;;;;;21.35;100.00;100793.19;4962598;28;20039;-71
2023/08/15 02:43:28;;;;;;;5.50;4.15;;;;;;;21.28;100.00;100790.06;4965783;28;20414;-71
2023/08/15 02:45:53;;;;;;;5.32;4.25;;;;;;;21.24;100.00;100802.50;4962406;28;20447;-71
2023/08/15 02:48:18;;;;;;;11.25;4.80;;;;;;;21.26;100.00;100816.41;4966133;28;20038;-71
2023/08/15 02:50:44;;;;;;;5.05;4.47;;;;;;;21.21;100.00;100812.31;4965471;28;20173;-71
2023/08/15 02:53:09;;;;;;;8.10;4.80;;;;;;;21.19;100.00;100820.28;4961524;28;20093;-71
2023/08/15 02:55:35;;;;;;;7.72;5.10;;;;;;;21.19;100.00;100815.00;4960354;28;20598;-70
2023/08/15 02:58:00;;;;;;;7.28;5.25;;;;;;;21.15;100.00;100816.13;4963025;28;20665;-71
2023/08/15 03:00:26;;;;;;;8.65;5.70;;;;;;;21.12;100.00;100810.16;4966338;28;20035;-71
2023/08/15 03:02:52;;;;;;;14.40;6.43;;;;;;;21.09;100.00;100813.81;4961097;28;20094;-72
2023/08/15 03:05:18;;;;;;;9.18;5.65;;;;;;;21.09;100.00;100837.47;4965066;28;20019;-71
2023/08/15 03:07:43;;;;;;;9.23;5.78;;;;;;;21.06;100.00;100853.38;4959603;28;20551;-71
2023/08/15 03:10:09;;;;;;;9.05;5.57;;;;;;;21.04;100.00;100872.78;4961454;28;20118;-71
2023/08/15 03:12:34;;;;;;;18.63;7.70;;;;;;;21.01;100.00;100892.19;4960280;28;20030;-71
2023/08/15 03:15:00;;;;;;;19.55;9.77;;;;;;;20.97;100.00;100903.78;4949843;28;20058;-71
2023/08/15 03:17:26;;;;;;;17.70;10.77;;;;;;;20.98;100.00;100909.88;4965788;28;20027;-72
2023/08/15 03:19:53;;;;;;;19.98;11.65;;;;;;;20.89;100.00;100895.41;4965185;28;20035;-73
2023/08/15 03:22:19;;;;;;;25.08;11.18;;;;;;;20.85;100.00;100890.38;4966489;28;20063;-73
2023/08/15 03:24:44;;;;;;;12.18;9.10;;;;;;;20.90;100.00;100891.84;4966822;28;20182;-73
2023/08/15 03:27:10;;;;;;;14.90;7.97;;;;;;;20.89;100.00;100894.56;4962295;28;20132;-73
2023/08/15 03:29:35;;;;;;;10.65;6.63;;;;;;;20.84;100.00;100886.06;4969976;28;20022;-73
2023/08/15 03:32:00;;;;;;;9.98;6.10;;;;;;;20.79;100.00;100874.91;4965958;28;20443;-73
2023/08/15 03:34:26;;;;;;;10.45;5.82;;;;;;;20.75;100.00;100868.94;4965740;28;20043;-73
2023/08/15 03:36:51;;;;;;;8.13;5.10;;;;;;;20.68;100.00;100867.53;4962157;28;20035;-73
2023/08/15 03:39:16;;;;;;;9.38;5.05;;;;;;;20.65;100.00;100872.94;4965440;28;20037;-73
2023/08/15 03:41:42;;;;;;;7.50;4.75;;;;;;;20.60;100.00;100861.78;4964989;28;20027;-74
2023/08/15 03:44:07;;;;;;;6.53;4.32;;;;;;;20.52;100.00;100845.53;4966928;28;20064;-73
2023/08/15 03:46:33;;;;;;;11.80;5.32;;;;;;;20.47;100.00;100842.28;4963344;28;20069;-73
2023/08/15 03:48:58;;;;;;;10.40;5.10;;;;;;;20.41;100.00;100839.94;4966224;28;20065;-73
2023/08/15 03:51:24;;;;;;;8.43;5.15;;;;;;;20.40;100.00;100840.88;4968853;28;20037;-73
2023/08/15 03:53:49;;;;;;;8.02;4.55;;;;;;;20.34;100.00;100838.53;4984144;28;20516;-73
2023/08/15 03:56:14;;;;;;;8.27;4.75;;;;;;;20.26;100.00;100814.41;4960308;28;20137;-73
2023/08/15 03:58:40;;;;;;;8.02;4.93;;;;;;;20.20;100.00;100804.22;4963581;28;20156;-73
2023/08/15 04:01:05;;;;;;;7.80;4.53;;;;;;;20.16;100.00;100824.50;4950912;28;20035;-72
2023/08/15 04:03:30;;;;;;;7.15;3.40;;;;;;;20.04;100.00;100835.56;4960636;28;20400;-73
2023/08/15 04:05:56;;;;;;;5.60;3.40;;;;;;;19.98;100.00;100835.84;4965392;28;20114;-73
2023/08/15 04:08:21;;;;;;;9.15;3.05;;;;;;;19.79;100.00;100840.25;4964567;28;20023;-73
2023/08/15 04:10:47;;;;;;;5.07;2.20;;;;;;;19.73;100.00;100843.09;4963856;28;20085;-73
2023/08/15 04:13:13;;;;;;;4.35;2.55;;;;;;;19.63;100.00;100847.91;4955999;28;20054;-72
2023/08/15 04:15:39;;;;;;;5.28;2.65;;;;;;;19.57;100.00;100879.63;4944793;28;20058;-73
2023/08/15 04:18:06;;;;;;;3.40;1.92;;;;;;;19.52;100.00;100894.72;4959761;28;20026;-72
2023/08/15 04:20:34;;;;;;;5.55;2.35;;;;;;;19.51;100.00;100906.13;4964289;28;20042;-73
2023/08/15 04:23:00;;;;;;;4.57;2.03;;;;;;;19.48;100.00;100895.75;4963338;28;20035;-72
2023/08/15 04:25:25;;;;;;;5.43;2.47;;;;;;;19.44;100.00;100902.88;4964090;28;20534;-72
2023/08/15 04:27:51;;;;;;;4.03;2.05;;;;;;;19.41;100.00;100886.47;4960953;28;20635;-72
2023/08/15 04:30:18;;;;;;;5.28;1.92;;;;;;;19.37;100.00;100877.03;4958668;28;20046;-72
2023/08/15 04:32:45;;;;;;;3.58;2.00;;;;;;;19.35;100.00;100894.59;4956738;28;20049;-73
2023/08/15 04:35:10;;;;;;;3.88;2.13;;;;;;;19.37;100.00;100890.13;4941349;28;20046;-72
2023/08/15 04:37:36;;;;;;;4.70;2.08;;;;;;;19.35;100.00;100894.59;4963031;28;20039;-72
2023/08/15 04:40:01;;;;;;;4.15;2.00;;;;;;;19.31;100.00;100877.28;4955442;28;20043;-72
2023/08/15 04:42:27;;;;;;;5.32;2.53;;;;;;;19.31;100.00;100878.13;4962470;28;20045;-72
2023/08/15 04:44:52;;;;;;;3.83;1.90;;;;;;;19.32;100.00;100871.13;4960795;28;20070;-72
2023/08/15 04:47:19;;;;;;;4.18;1.90;;;;;;;19.28;100.00;100883.50;4962187;28;20397;-72
2023/08/15 04:49:44;;;;;;;4.70;1.88;;;;;;;19.29;100.00;100905.34;4967208;28;20089;-72
2023/08/15 04:52:10;;;;;;;3.42;1.98;;;;;;;19.30;100.00;100930.59;4940852;28;20484;-72
2023/08/15 04:54:35;;;;;;;4.75;2.25;;;;;;;19.29;100.00;100935.03;4972180;28;20035;-73
2023/08/15 04:57:00;;;;;;;3.83;2.20;;;;;;;19.27;100.00;100949.06;4980336;28;20523;-73
2023/08/15 04:59:26;;;;;;;5.13;2.58;;;;;;;19.29;100.00;100957.75;4969038;28;20031;-72
2023/08/15 05:01:51;;;;;;;4.70;2.65;;;;;;;19.33;100.00;100959.31;4987878;28;20508;-72
2023/08/15 05:04:16;;;;;;;3.13;2.10;;;;;;;19.37;100.00;100955.66;4988521;28;20473;-72
2023/08/15 05:06:42;;;;;;;5.60;2.63;;;;;;;19.36;100.00;100959.19;4972906;28;20034;-73
2023/08/15 05:09:07;;;;;;;6.85;2.63;;;;;;;19.36;100.00;100943.47;4969150;28;20066;-72
2023/08/15 05:11:33;;;;;;;4.82;2.85;;;;;;;19.40;100.00;100961.63;4988639;28;20035;-73
2023/08/15 05:14:00;;;;;;;5.38;2.85;;;;;;;19.44;100.00;100934.34;4984091;28;20042;-72
2023/08/15 05:16:26;;;;;;;3.22;2.25;;;;;;;19.46;100.00;100939.56;4982411;28;20038;-72
2023/08/15 05:18:51;;;;;;;3.60;2.28;;;;;;;19.49;100.00;100942.03;4966808;28;20061;-72
2023/08/15 05:21:16;;;;;;;5.20;2.40;;;;;;;19.57;100.00;100945.19;4985716;28;20077;-73
2023/08/15 05:23:42;;;;;;;6.10;2.55;;;;;;;19.57;100.00;100950.44;4967929;28;20029;-73
2023/08/15 05:26:07;;;;;;;6.28;2.88;;;;;;;19.58;100.00;100944.28;4989930;28;20038;-72
2023/08/15 05:28:32;;;;;;;5.07;3.17;;;;;;;19.64;100.00;100949.25;4958150;28;20515;-72
2023/08/15 05:30:58;;;;;;;5.90;2.80;;;;;;;19.72;100.00;100952.41;4992654;28;20508;-72
2023/08/15 05:33:23;;;;;;;6.80;3.00;;;;;;;19.76;100.00;100951.38;4972804;28;20558;-72
2023/08/15 05:35:49;;;;;;;4.60;2.92;;;;;;;19.78;100.00;100931.16;4987998;28;20114;-72
2023/08/15 05:38:14;;;;;;;5.18;3.05;;;;;;;19.80;100.00;100928.50;4989790;28;20042;-72
2023/08/15 05:40:39;;;;;;;4.82;3.25;;;;;;;19.83;100.00;100941.50;4982800;28;20038;-73
2023/08/15 05:43:05;;;;;;;6.82;3.20;;;;;;;19.84;100.00;100945.81;4969107;28;20101;-73
2023/08/15 05:45:30;;;;;;;4.18;2.90;;;;;;;19.86;100.00;100957.94;4983871;28;20119;-72
2023/08/15 05:47:55;;;;;;;5.35;3.60;;;;;;;19.91;100.00;100966.47;4982680;28;20030;-73
2023/08/15 05:50:21;;;;;;;3.65;2.92;;;;;;;19.91;100.00;100981.34;4979688;28;20025;-73
2023/08/15 05:52:47;;;;;;;4.38;2.78;;;;;;;19.92;100.00;100986.53;4964928;28;20507;-71
2023/08/15 05:55:12;;;;;;;4.57;3.58;;;;;;;19.97;100.00;100986.34;4986719;28;20042;-73
2023/08/15 05:57:37;;;;;;;5.00;3.10;;;;;;;20.05;100.00;100982.47;4970027;28;20118;-72
2023/08/15 06:00:05;;;;;;;3.83;2.78;;;;;;;20.09;100.00;100985.81;4989442;28;20062;-73
2023/08/15 06:02:34;;;;;;;4.72;3.25;;;;;;;20.17;100.00;100988.94;4955988;28;20088;-71
2023/08/15 06:05:01;;;;;;;3.97;3.15;;;;;;;20.28;100.00;100975.31;4992741;28;20034;-72
2023/08/15 06:07:26;;;;;;;4.72;3.13;;;;;;;20.36;100.00;100975.84;4970316;28;20038;-73
2023/08/15 06:09:52;;;;;;;4.25;2.75;;;;;;;20.43;100.00;100975.50;4969313;28;20081;-72
2023/08/15 06:12:17;;;;;;;4.43;3.40;;;;;;;20.54;100.00;100977.66;4985955;28;20035;-70
2023/08/15 06:14:42;;;;;;;4.93;3.50;;;;;;;20.66;100.00;100977.91;4994185;28;20038;-71
2023/08/15 06:17:08;;;;;;;6.53;3.47;;;;;;;20.73;100.00;100968.00;4954188;28;20047;-71
2023/08/15 06:19:34;;;;;;;5.25;3.53;;;;;;;20.76;100.00;100975.75;4979885;28;20042;-71
2023/08/15 06:21:59;;;;;;;6.95;3.63;;;;;;;20.79;100.00;100974.75;4963448;28;20035;-71
2023/08/15 06:24:24;;;;;;;4.90;3.20;;;;;;;20.77;100.00;100976.59;4987419;28;20035;-71
2023/08/15 06:26:50;;;;;;;7.25;3.70;;;;;;;20.84;100.00;100984.09;4970864;28;20057;-72
2023/08/15 06:29:15;;;;;;;4.05;3.08;;;;;;;20.94;100.00;100997.66;4967389;28;20069;-71
2023/08/15 06:31:40;;;;;;;4.78;3.28;;;;;;;20.97;100.00;100993.13;4985642;28;20034;-71
2023/08/15 06:34:06;;;;;;;6.20;3.65;;;;;;;20.96;100.00;100990.56;4985584;28;20049;-70
2023/08/15 06:36:32;;;;;;;5.05;3.10;;;;;;;20.97;100.00;100998.38;4981906;28;20053;-71
2023/08/15 06:38:57;;;;;;;3.88;3.15;;;;;;;20.96;100.00;100995.81;4968365;28;20030;-71
2023/08/15 06:41:23;;;;;;;4.38;2.88;;;;;;;20.95;100.00;100996.75;4989427;28;20040;-70
2023/08/15 06:43:48;;;;;;;5.38;3.75;;;;;;;20.98;100.00;100999.25;5001785;28;20028;-69
2023/08/15 06:46:14;;;;;;;4.65;2.78;;;;;;;20.92;100.00;100999.53;5000269;28;20618;-70
2023/08/15 06:48:40;;;;;;;3.88;2.83;;;;;;;21.09;100.00;101000.44;4991355;28;20065;-70
2023/08/15 06:51:05;;;;;;;5.95;3.00;;;;;;;21.23;100.00;101002.38;4990115;28;20037;-71
2023/08/15 06:53:31;;;;;;;4.75;3.13;;;;;;;21.31;100.00;101009.91;4977190;28;20033;-71
2023/08/15 06:55:57;;;;;;;4.72;3.08;;;;;;;21.27;100.00;101017.94;4986290;28;20620;-71
2023/08/15 06:58:22;;;;;;;6.30;3.17;;;;;;;21.32;100.00;101020.34;4985122;28;20121;-70
2023/08/15 07:00:48;;;;;;;6.47;3.03;;;;;;;21.30;100.00;101021.34;4974824;28;20030;-71
2023/08/15 07:03:15;;;;;;;5.50;3.00;;;;;;;21.30;100.00;101016.94;4990313;28;20229;-71
2023/08/15 07:05:41;;;;;;;7.63;2.85;;;;;;;21.41;100.00;101017.25;4969440;28;20030;-71
2023/08/15 07:08:07;;;;;;;5.00;2.72;;;;;;;21.55;100.00;101016.59;4981261;28;20043;-70
2023/08/15 07:10:36;;;;;;;4.82;2.83;;;;;;;21.66;100.00;101016.94;4988651;28;20185;-70
2023/08/15 07:13:02;;;;;;;6.47;2.80;;;;;;;21.74;100.00;101020.03;4985483;28;20077;-71
2023/08/15 07:15:28;;;;;;;6.88;2.72;;;;;;;21.79;100.00;101013.59;4983148;28;20528;-71
2023/08/15 07:17:53;;;;;;;5.15;2.55;;;;;;;22.00;100.00;101009.03;4984935;28;20038;-71
2023/08/15 07:20:19;;;;;;;5.82;2.60;;;;;;;22.05;100.00;101012.28;4986903;28;20034;-70
2023/08/15 07:22:45;;;;;;;5.93;2.60;;;;;;;22.00;100.00;101008.16;4979513;28;20050;-71
2023/08/15 07:25:11;;;;;;;6.00;3.15;;;;;;;22.05;100.00;101009.66;4968624;28;20038;-71
2023/08/15 07:27:37;;;;;;;4.20;2.70;;;;;;;22.06;100.00;100999.97;4982942;28;20038;-69
2023/08/15 07:30:04;;;;;;;4.50;2.47;;;;;;;22.01;100.00;100994.09;4983643;28;20036;-70
2023/08/15 07:32:29;;;;;;;6.13;3.05;;;;;;;21.97;100.00;101014.44;4984463;28;20160;-70
2023/08/15 07:34:55;;;;;;;4.15;2.33;;;;;;;21.94;100.00;101033.03;4982681;28;20122;-70
2023/08/15 07:37:20;;;;;;;6.97;3.10;;;;;;;21.93;100.00;101047.16;4981145;28;20146;-70
2023/08/15 07:39:55;;;;;;;7.88;3.17;;;;;;;21.91;100.00;101045.53;4984465;28;20039;-70
2023/08/15 07:42:20;;;;;;;3.08;2.47;;;;;;;21.94;100.00;101043.56;4984892;28;20052;-70
2023/08/15 07:44:47;;;;;;;4.75;2.35;;;;;;;22.05;100.00;101036.00;4953995;28;20416;-70
2023/08/15 07:47:12;;;;;;;4.95;2.50;;;;;;;22.14;100.00;101030.25;4981891;28;20048;-70
2023/08/15 07:49:37;;;;;;;5.97;2.45;;;;;;;22.28;100.00;101032.16;4987687;28;20476;-71
2023/08/15 07:52:03;;;;;;;4.95;2.78;;;;;;;22.36;100.00;101029.97;4977329;28;20050;-70
2023/08/15 07:54:28;;;;;;;3.10;2.22;;;;;;;22.39;100.00;101026.34;4967570;28;20061;-70
2023/08/15 07:56:54;;;;;;;3.10;2.42;;;;;;;22.41;100.00;101025.34;4986089;28;20092;-70
2023/08/15 07:59:19;;;;;;;4.00;2.08;;;;;;;22.44;100.00;101041.00;4983281;28;20062;-70
2023/08/15 08:01:44;;;;;;;3.22;1.88;;;;;;;22.43;100.00;101041.06;4967733;28;20504;-70
2023/08/15 08:04:10;;;;;;;4.40;2.08;;;;;;;22.36;100.00;101067.69;4984381;28;20045;-70
2023/08/15 08:06:35;;;;;;;2.70;2.25;;;;;;;22.29;100.00;101053.13;4985034;28;20062;-70
2023/08/15 08:09:00;;;;;;;4.20;1.92;;;;;;;22.30;100.00;101057.47;4969381;28;20030;-70
2023/08/15 08:11:26;;;;;;;3.47;1.98;;;;;;;22.30;100.00;101065.38;4985654;28;20449;-70
2023/08/15 08:13:51;;;;;;;4.78;2.00;;;;;;;22.33;100.00;101057.31;4980164;28;20112;-70
2023/08/15 08:16:17;;;;;;;4.78;2.45;;;;;;;22.30;100.00;101065.38;4983551;28;20117;-70
2023/08/15 08:18:43;;;;;;;3.10;2.30;;;;;;;22.28;100.00;101061.97;4968469;28;20038;-70
2023/08/15 08:21:09;;;;;;;6.50;1.98;;;;;;;22.23;100.00;101060.53;4987761;28;20042;-70
2023/08/15 08:23:35;;;;;;;4.70;2.42;;;;;;;22.29;100.00;101063.66;4967839;28;20709;-70
2023/08/15 08:26:01;;;;;;;3.20;2.67;;;;;;;22.36;100.00;101065.06;4986078;28;20041;-70
2023/08/15 08:28:26;;;;;;;7.13;2.80;;;;;;;22.33;100.00;101061.72;4972110;28;20034;-70
2023/08/15 08:30:52;;;;;;;3.92;2.15;;;;;;;22.49;100.00;101069.72;4991683;28;20080;-70
2023/08/15 08:33:18;;;;;;;4.20;1.88;;;;;;;22.57;100.00;101067.53;4991996;28;20034;-70
2023/08/15 08:35:43;;;;;;;4.82;1.98;;;;;;;22.53;100.00;101053.66;4991470;28;20053;-71
2023/08/15 08:38:08;;;;;;;3.13;2.10;;;;;;;22.44;99.65;101062.06;4967638;28;20132;-70
2023/08/15 08:40:34;;;;;;;6.00;2.25;;;;;;;22.34;100.00;101077.47;4971598;28;20049;-70
2023/08/15 08:42:59;;;;;;;3.22;2.30;;;;;;;22.28;100.00;101069.88;4979211;28;20042;-70
2023/08/15 08:45:29;;;;;;;3.97;2.33;;;;;;;22.28;100.00;101085.69;4986087;28;20042;-70
2023/08/15 08:47:56;;;;;;;4.30;2.20;;;;;;;22.38;99.91;101072.94;4970864;28;20022;-71
2023/08/15 08:50:21;;;;;;;4.78;2.92;;;;;;;22.56;99.25;101071.09;4970223;28;20164;-70
2023/08/15 08:52:50;;;;;;;4.35;3.08;;;;;;;22.79;99.38;101068.09;4990737;28;20126;-70
2023/08/15 08:55:17;;;;;;;3.00;2.17;;;;;;;22.99;97.60;101073.13;4989348;28;20030;-70
2023/08/15 08:57:47;;;;;;;2.58;2.20;;;;;;;23.11;97.56;101075.09;4981667;28;20121;-70
2023/08/15 09:00:14;;;;;;;4.82;3.10;;;;;;;23.19;95.76;101077.31;4990370;28;20050;-70
2023/08/15 09:02:40;;;;;;;5.90;3.13;;;;;;;23.09;91.23;101070.84;4981085;28;20392;-70
2023/08/15 09:05:07;;;;;;;7.45;3.20;;;;;;;22.99;89.66;101077.53;4989218;28;20061;-70
2023/08/15 09:07:34;;;;;;;4.63;3.05;;;;;;;23.19;89.45;101070.25;4986774;28;20061;-70
2023/08/15 09:10:00;;;;;;;6.15;3.20;;;;;;;23.46;90.21;101081.06;4987299;28;20042;-70
2023/08/15 09:12:56;;;;;;;6.30;2.80;;;;;;;23.61;91.76;101082.81;4973167;28;20045;-70
2023/08/15 09:15:23;;;;;;;9.27;3.50;;;;;;;23.59;91.23;101083.88;4987482;28;20043;-70
2023/08/15 09:17:49;;;;;;;5.18;2.85;;;;;;;23.57;91.90;101091.84;4991102;28;20123;-70
2023/08/15 09:20:16;;;;;;;5.53;3.72;;;;;;;23.57;92.43;101094.50;4988079;28;20535;-70
2023/08/15 09:22:46;;;;;;;10.70;3.35;;;;;;;23.60;93.33;101104.03;4989616;28;20428;-70
2023/08/15 09:25:17;;;;;;;4.53;3.38;;;;;;;23.66;92.49;101090.50;4972990;28;20038;-70
2023/08/15 09:27:43;;;;;;;4.07;3.10;;;;;;;23.93;92.60;101094.16;4988796;28;20127;-70
2023/08/15 09:30:11;;;;;;;4.53;3.40;;;;;;;24.10;87.93;101085.31;4987003;28;20026;-70
2023/08/15 09:32:41;;;;;;;7.30;4.38;;;;;;;24.12;83.11;101086.91;4988069;28;20026;-70
2023/08/15 09:35:12;;;;;;;7.75;4.32;;;;;;;24.14;81.45;101079.72;4970099;28;20072;-70
2023/08/15 09:37:45;;;;;;;6.95;4.80;;;;;;;24.30;81.52;101090.25;4988555;28;20040;-70
2023/08/15 09:40:22;;;;;;;7.65;4.85;;;;;;;24.32;80.56;101105.06;4987432;28;20296;-70
2023/08/15 09:42:47;;;;;;;5.50;4.28;;;;;;;24.46;82.05;101102.44;4965828;28;20721;-70
2023/08/15 09:45:14;;;;;;;6.03;5.30;;;;;;;24.21;81.05;101104.84;4970861;28;20126;-70
2023/08/15 09:47:41;;;;;;;6.60;4.50;;;;;;;24.22;81.06;101105.72;4982572;28;20018;-69
2023/08/15 09:50:08;;;;;;;10.07;4.22;;;;;;;24.38;82.29;101102.03;4987608;28;20034;-70
2023/08/15 09:52:41;;;;;;;6.82;4.75;;;;;;;24.44;83.35;101111.41;4991742;28;20050;-70
2023/08/15 09:55:09;;;;;;;6.25;4.70;;;;;;;24.58;84.64;101121.16;4991358;28;20114;-70
2023/08/15 09:57:36;;;;;;;8.82;5.80;;;;;;;24.62;84.04;101122.66;4997488;28;20081;-70
2023/08/15 10:00:04;;;;;;;8.45;5.05;;;;;;;24.74;84.32;101121.94;4995204;28;20030;-70
2023/08/15 10:02:30;;;;;;;7.55;3.70;;;;;;;24.87;83.88;101120.25;4975457;28;20090;-70
2023/08/15 10:05:03;;;;;;;10.30;4.90;;;;;;;24.76;80.25;101107.66;4992128;28;20520;-70
2023/08/15 10:07:32;;;;;;;5.32;4.43;;;;;;;24.73;80.82;101114.97;4982883;28;20126;-70
2023/08/15 10:10:01;;;;;;;8.68;5.00;;;;;;;24.78;82.81;101119.03;4988043;28;20034;-70
2023/08/15 10:12:27;;;;;;;5.78;4.43;;;;;;;24.83;83.40;101130.16;4986404;28;20044;-70
2023/08/15 10:14:55;;;;;;;7.32;5.18;;;;;;;24.78;80.00;101126.09;4988696;28;20019;-71
2023/08/15 10:17:20;;;;;;;5.40;4.28;;;;;;;24.80;79.45;101126.84;4967895;28;20049;-70
2023/08/15 10:19:48;;;;;;;7.65;5.18;;;;;;;24.81;79.01;101126.75;4985147;28;20038;-70
2023/08/15 10:22:18;;;;;;;7.03;4.53;;;;;;;24.84;79.23;101137.16;4980528;28;20109;-70
2023/08/15 10:24:43;;;;;;;6.20;5.05;;;;;;;24.87;79.51;101136.13;4985495;28;20741;-70
2023/08/15 10:27:10;;;;;;;5.97;4.90;;;;;;;24.75;78.91;101147.44;4982550;28;20118;-70
2023/08/15 10:29:55;;;;;;;8.27;4.75;;;;;;;24.66;78.08;101129.47;4984387;28;20026;-70
2023/08/15 10:32:24;;;;;;;;;;;;;;;24.68;82.24;101148.72;4985500;28;20101;-70
2023/08/15 10:34:54;;;;;;;12.38;5.07;;;;;;;24.64;79.26;101126.06;4983543;28;19983;-70
2023/08/15 10:37:37;;;;;;;6.50;5.43;;;;;;;24.83;81.08;101131.94;4980886;28;20049;-73
2023/08/15 10:40:10;;;;;;;11.63;5.63;;;;;;;24.95;80.05;101131.19;4984535;28;20046;-70
2023/08/15 10:43:01;;;;;;;8.35;5.68;;;;;;;24.88;78.94;101130.72;4990331;28;20045;-70
2023/08/15 10:45:29;;;;;;;7.45;6.47;;;;;;;24.77;78.57;101124.38;4987288;28;20042;-71
2023/08/15 10:47:55;;;;;;;9.68;5.50;;;;;;;24.95;79.40;101125.91;4986212;28;20038;-70
2023/08/15 10:50:22;;;;;;;6.78;5.80;;;;;;;25.13;79.52;101132.69;4996447;28;20076;-71
2023/08/15 10:53:17;;;;;;;9.63;5.93;;;;;;;25.05;79.47;101133.19;4996091;28;20042;-73
2023/08/15 10:55:42;;;;;;;6.85;5.35;;;;;;;25.08;79.28;101135.59;4966515;28;20124;-72
2023/08/15 10:58:10;;;;;;;6.32;4.28;;;;;;;25.29;79.31;101133.44;4986114;28;20455;-71
2023/08/15 11:00:37;;;;;;;7.40;4.88;;;;;;;25.35;78.56;101133.00;4991080;28;20048;-71
2023/08/15 11:03:03;;;;;;;6.13;4.85;;;;;;;25.53;79.24;101131.06;4997581;28;20112;-71
2023/08/15 11:05:29;;;;;;;9.88;5.32;;;;;;;25.58;78.44;101137.75;4971615;28;20026;-71
2023/08/15 11:08:10;;;;;;;7.22;5.70;;;;;;;25.53;74.99;101116.00;4985934;28;20564;-71
2023/08/15 11:10:36;;;;;;;10.95;5.63;;;;;;;25.57;75.45;101133.38;4986394;28;20041;-71
2023/08/15 11:13:01;;;;;;;7.55;5.43;;;;;;;25.55;76.07;101135.28;4986919;28;20038;-72
2023/08/15 11:15:27;;;;;;;8.20;4.95;;;;;;;25.52;75.42;101131.97;4972862;28;20138;-74
2023/08/15 11:17:53;;;;;;;9.60;6.57;;;;;;;25.27;74.82;101130.00;4987291;28;20536;-72